sensor_id;sensor_type;location;lat;lon;timestamp;pressure;altitude;pressure_sealevel;temperature;humidity
31239;BME280;17871;31.584;74.450;2023-01-31T00:01:42;99330.59;;;12.93;100.00
31239;BME280;17871;31.584;74.450;2023-01-31T00:04:11;99341.72;;;12.95;100.00
31239;BME280;17871;31.584;74.450;2023-01-31T00:06:43;99333.22;;;13.01;100.00
31239;BME280;17871;31.584;74.450;2023-01-31T00:09:18;99333.22;;;12.99;100.00
31239;BME280;17871;31.584;74.450;2023-01-31T00:11:48;99339.19;;;12.98;100.00
31239;BME280;17871;31.584;74.450;2023-01-31T00:14:22;99335.03;;;13.08;100.00
31239;BME280;17871;31.584;74.450;2023-01-31T00:16:53;99336.66;;;13.00;100.00
31239;BME280;17871;31.584;74.450;2023-01-31T00:19:22;99336.25;;;12.71;100.00
31239;BME280;17871;31.584;74.450;2023-01-31T00:21:52;99332.00;;;12.72;100.00
31239;BME280;17871;31.584;74.450;2023-01-31T00:24:22;99331.31;;;12.85;100.00
31239;BME280;17871;31.584;74.450;2023-01-31T00:26:51;99327.28;;;13.02;100.00
31239;BME280;17871;31.584;74.450;2023-01-31T00:29:25;99327.28;;;13.00;100.00
31239;BME280;17871;31.584;74.450;2023-01-31T00:31:54;99325.56;;;13.02;100.00
31239;BME280;17871;31.584;74.450;2023-01-31T00:34:23;99335.97;;;13.10;100.00
31239;BME280;17871;31.584;74.450;2023-01-31T00:36:53;99331.31;;;12.85;100.00
31239;BME280;17871;31.584;74.450;2023-01-31T00:39:22;99330.53;;;12.89;100.00
31239;BME280;17871;31.584;74.450;2023-01-31T00:41:51;99328.97;;;13.01;100.00
31239;BME280;17871;31.584;74.450;2023-01-31T00:44:20;99333.31;;;13.06;100.00
31239;BME280;17871;31.584;74.450;2023-01-31T00:46:50;99330.00;;;13.14;100.00
31239;BME280;17871;31.584;74.450;2023-01-31T00:49:19;99328.31;;;13.15;100.00
31239;BME280;17871;31.584;74.450;2023-01-31T00:51:48;99328.31;;;13.13;100.00
31239;BME280;17871;31.584;74.450;2023-01-31T00:54:18;99336.88;;;13.14;100.00
31239;BME280;17871;31.584;74.450;2023-01-31T00:56:46;99341.13;;;13.13;100.00
31239;BME280;17871;31.584;74.450;2023-01-31T00:59:16;99339.31;;;13.08;100.00
31239;BME280;17871;31.584;74.450;2023-01-31T01:01:46;99343.53;;;13.04;100.00
31239;BME280;17871;31.584;74.450;2023-01-31T01:04:16;99341.03;;;13.07;100.00
31239;BME280;17871;31.584;74.450;2023-01-31T01:06:47;99338.47;;;13.07;100.00
31239;BME280;17871;31.584;74.450;2023-01-31T01:09:18;99341.03;;;13.07;100.00
31239;BME280;17871;31.584;74.450;2023-01-31T01:11:48;99345.25;;;13.05;100.00
31239;BME280;17871;31.584;74.450;2023-01-31T01:14:18;99351.31;;;13.07;100.00
31239;BME280;17871;31.584;74.450;2023-01-31T01:16:49;99354.66;;;13.05;100.00
31239;BME280;17871;31.584;74.450;2023-01-31T01:19:19;99357.19;;;13.01;100.00
31239;BME280;17871;31.584;74.450;2023-01-31T01:21:49;99357.13;;;12.94;100.00
31239;BME280;17871;31.584;74.450;2023-01-31T01:24:19;99360.50;;;12.93;100.00
31239;BME280;17871;31.584;74.450;2023-01-31T01:26:50;99358.06;;;13.00;100.00
31239;BME280;17871;31.584;74.450;2023-01-31T01:29:20;99355.38;;;12.94;100.00
31239;BME280;17871;31.584;74.450;2023-01-31T01:31:50;99363.09;;;12.94;100.00
31239;BME280;17871;31.584;74.450;2023-01-31T01:34:21;99368.22;;;12.94;100.00
31239;BME280;17871;31.584;74.450;2023-01-31T01:36:51;99363.16;;;12.99;100.00
31239;BME280;17871;31.584;74.450;2023-01-31T01:39:21;99371.63;;;12.93;100.00
31239;BME280;17871;31.584;74.450;2023-01-31T01:41:51;99375.97;;;12.99;100.00
31239;BME280;17871;31.584;74.450;2023-01-31T01:47:25;99367.75;;;13.21;100.00
31239;BME280;17871;31.584;74.450;2023-01-31T01:50:06;99362.56;;;13.17;100.00
31239;BME280;17871;31.584;74.450;2023-01-31T01:52:52;99359.13;;;13.16;100.00
31239;BME280;17871;31.584;74.450;2023-01-31T01:55:45;99367.78;;;13.24;100.00
31239;BME280;17871;31.584;74.450;2023-01-31T02:01:05;99377.78;;;13.06;100.00
31239;BME280;17871;31.584;74.450;2023-01-31T02:03:37;99381.09;;;12.99;100.00
31239;BME280;17871;31.584;74.450;2023-01-31T02:06:08;99386.44;;;13.11;100.00
31239;BME280;17871;31.584;74.450;2023-01-31T02:08:41;99384.84;;;13.19;100.00
31239;BME280;17871;31.584;74.450;2023-01-31T02:11:23;99388.22;;;13.17;100.00
31239;BME280;17871;31.584;74.450;2023-01-31T02:14:07;99387.25;;;13.09;100.00
31239;BME280;17871;31.584;74.450;2023-01-31T02:16:41;99380.34;;;13.08;100.00
31239;BME280;17871;31.584;74.450;2023-01-31T02:25:17;99385.88;;;13.33;100.00
31239;BME280;17871;31.584;74.450;2023-01-31T02:31:06;99387.47;;;13.25;100.00
31239;BME280;17871;31.584;74.450;2023-01-31T02:39:55;99395.97;;;13.21;100.00
31239;BME280;17871;31.584;74.450;2023-01-31T02:48:31;99403.09;;;13.43;100.00
31239;BME280;17871;31.584;74.450;2023-01-31T02:53:55;99413.38;;;13.45;100.00
31239;BME280;17871;31.584;74.450;2023-01-31T02:56:31;99411.69;;;13.47;100.00
31239;BME280;17871;31.584;74.450;2023-01-31T02:59:31;99420.44;;;13.64;100.00
31239;BME280;17871;31.584;74.450;2023-01-31T03:02:04;99415.31;;;13.63;100.00
31239;BME280;17871;31.584;74.450;2023-01-31T03:04:35;99417.84;;;13.60;100.00
31239;BME280;17871;31.584;74.450;2023-01-31T03:07:13;99423.09;;;13.69;100.00
31239;BME280;17871;31.584;74.450;2023-01-31T03:18:33;99447.25;;;13.86;100.00
31239;BME280;17871;31.584;74.450;2023-01-31T03:21:16;99445.63;;;13.92;100.00
31239;BME280;17871;31.584;74.450;2023-01-31T03:23:52;99456.72;;;13.93;100.00
31239;BME280;17871;31.584;74.450;2023-01-31T03:26:25;99464.50;;;13.97;100.00
31239;BME280;17871;31.584;74.450;2023-01-31T03:28:58;99484.31;;;14.06;100.00
31239;BME280;17871;31.584;74.450;2023-01-31T03:31:39;99487.81;;;14.13;100.00
31239;BME280;17871;31.584;74.450;2023-01-31T03:34:13;99492.88;;;14.10;100.00
31239;BME280;17871;31.584;74.450;2023-01-31T03:37:02;99499.00;;;14.19;100.00
31239;BME280;17871;31.584;74.450;2023-01-31T03:39:58;99502.47;;;14.24;100.00
31239;BME280;17871;31.584;74.450;2023-01-31T03:43:03;99511.09;;;14.29;100.00
31239;BME280;17871;31.584;74.450;2023-01-31T03:45:48;99516.94;;;14.16;100.00
31239;BME280;17871;31.584;74.450;2023-01-31T03:48:21;99519.75;;;14.34;100.00
31239;BME280;17871;31.584;74.450;2023-01-31T03:50:58;99520.75;;;14.50;99.37
31239;BME280;17871;31.584;74.450;2023-01-31T03:53:40;99521.63;;;14.50;99.61
31239;BME280;17871;31.584;74.450;2023-01-31T03:58:55;99527.81;;;14.71;99.12
31239;BME280;17871;31.584;74.450;2023-01-31T04:01:31;99531.09;;;14.54;99.01
31239;BME280;17871;31.584;74.450;2023-01-31T04:04:10;99541.38;;;14.54;98.88
31239;BME280;17871;31.584;74.450;2023-01-31T04:06:43;99545.53;;;14.39;98.75
31239;BME280;17871;31.584;74.450;2023-01-31T04:09:14;99550.69;;;14.43;98.47
31239;BME280;17871;31.584;74.450;2023-01-31T04:11:47;99549.16;;;14.61;98.27
31239;BME280;17871;31.584;74.450;2023-01-31T04:14:18;99550.88;;;14.59;98.02
31239;BME280;17871;31.584;74.450;2023-01-31T04:16:49;99551.84;;;14.73;97.99
31239;BME280;17871;31.584;74.450;2023-01-31T04:19:18;99549.28;;;14.76;98.18
31239;BME280;17871;31.584;74.450;2023-01-31T04:21:49;99556.22;;;14.83;97.77
31239;BME280;17871;31.584;74.450;2023-01-31T04:24:19;99557.16;;;14.91;97.47
31239;BME280;17871;31.584;74.450;2023-01-31T04:26:49;99559.81;;;15.03;96.58
31239;BME280;17871;31.584;74.450;2023-01-31T04:29:20;99568.38;;;15.02;96.05
31239;BME280;17871;31.584;74.450;2023-01-31T04:31:50;99580.47;;;15.12;95.79
31239;BME280;17871;31.584;74.450;2023-01-31T04:34:20;99581.41;;;15.20;96.45
31239;BME280;17871;31.584;74.450;2023-01-31T04:36:50;99585.63;;;15.12;95.68
31239;BME280;17871;31.584;74.450;2023-01-31T04:39:20;99596.13;;;15.36;95.65
31239;BME280;17871;31.584;74.450;2023-01-31T04:41:50;99596.06;;;15.24;95.46
31239;BME280;17871;31.584;74.450;2023-01-31T04:44:20;99599.53;;;15.32;94.55
31239;BME280;17871;31.584;74.450;2023-01-31T04:46:51;99603.16;;;15.52;94.46
31239;BME280;17871;31.584;74.450;2023-01-31T04:49:21;99602.28;;;15.50;94.20
31239;BME280;17871;31.584;74.450;2023-01-31T04:51:50;99605.75;;;15.57;94.00
31239;BME280;17871;31.584;74.450;2023-01-31T04:54:21;99607.56;;;15.72;93.69
31239;BME280;17871;31.584;74.450;2023-01-31T04:56:52;99601.53;;;15.67;92.59
31239;BME280;17871;31.584;74.450;2023-01-31T04:59:22;99604.97;;;15.72;92.21
31239;BME280;17871;31.584;74.450;2023-01-31T05:01:52;99601.59;;;15.79;91.38
31239;BME280;17871;31.584;74.450;2023-01-31T05:04:22;99591.25;;;15.76;91.26
31239;BME280;17871;31.584;74.450;2023-01-31T05:06:54;99593.94;;;15.95;90.12
31239;BME280;17871;31.584;74.450;2023-01-31T05:09:24;99581.09;;;16.03;90.45
31239;BME280;17871;31.584;74.450;2023-01-31T05:11:55;99588.03;;;16.16;90.09
31239;BME280;17871;31.584;74.450;2023-01-31T05:14:25;99583.75;;;16.21;88.33
31239;BME280;17871;31.584;74.450;2023-01-31T05:16:56;99598.41;;;16.37;88.86
31239;BME280;17871;31.584;74.450;2023-01-31T05:19:26;99599.28;;;16.41;88.06
31239;BME280;17871;31.584;74.450;2023-01-31T05:21:56;99592.41;;;16.44;88.07
31239;BME280;17871;31.584;74.450;2023-01-31T05:24:31;99590.69;;;16.43;89.41
31239;BME280;17871;31.584;74.450;2023-01-31T05:27:02;99581.31;;;16.60;89.16
31239;BME280;17871;31.584;74.450;2023-01-31T05:29:32;99573.59;;;16.83;88.27
31239;BME280;17871;31.584;74.450;2023-01-31T05:32:04;99571.03;;;16.88;87.78
31239;BME280;17871;31.584;74.450;2023-01-31T05:34:35;99571.03;;;16.94;88.37
31239;BME280;17871;31.584;74.450;2023-01-31T05:37:06;99564.13;;;16.96;87.98
31239;BME280;17871;31.584;74.450;2023-01-31T05:39:37;99550.38;;;16.88;87.65
31239;BME280;17871;31.584;74.450;2023-01-31T05:42:07;99558.97;;;16.91;86.88
31239;BME280;17871;31.584;74.450;2023-01-31T05:44:39;99559.81;;;17.13;86.83
31239;BME280;17871;31.584;74.450;2023-01-31T05:47:10;99559.84;;;17.18;86.61
31239;BME280;17871;31.584;74.450;2023-01-31T05:49:40;99555.50;;;17.33;86.22
31239;BME280;17871;31.584;74.450;2023-01-31T05:52:11;99552.06;;;17.16;86.38
31239;BME280;17871;31.584;74.450;2023-01-31T05:54:41;99548.63;;;17.35;87.51
31239;BME280;17871;31.584;74.450;2023-01-31T05:57:12;99542.56;;;17.48;87.34
31239;BME280;17871;31.584;74.450;2023-01-31T05:59:45;99546.84;;;17.52;87.25
31239;BME280;17871;31.584;74.450;2023-01-31T06:02:16;99542.56;;;17.54;87.25
31239;BME280;17871;31.584;74.450;2023-01-31T06:04:46;99538.22;;;17.66;87.31
31239;BME280;17871;31.584;74.450;2023-01-31T06:07:18;99538.22;;;17.72;87.05
31239;BME280;17871;31.584;74.450;2023-01-31T06:09:48;99533.88;;;17.87;87.17
31239;BME280;17871;31.584;74.450;2023-01-31T06:12:18;99526.91;;;17.98;87.54
31239;BME280;17871;31.584;74.450;2023-01-31T06:14:47;99522.69;;;17.84;87.51
31239;BME280;17871;31.584;74.450;2023-01-31T06:17:20;99520.03;;;17.93;87.81
31239;BME280;17871;31.584;74.450;2023-01-31T06:19:52;99519.16;;;18.00;86.49
31239;BME280;17871;31.584;74.450;2023-01-31T06:22:22;99507.03;;;18.08;86.25
31239;BME280;17871;31.584;74.450;2023-01-31T06:24:53;99506.97;;;18.23;85.42
31239;BME280;17871;31.584;74.450;2023-01-31T06:27:26;99502.50;;;18.52;85.96
31239;BME280;17871;31.584;74.450;2023-01-31T06:29:56;99500.94;;;18.24;84.24
31239;BME280;17871;31.584;74.450;2023-01-31T06:32:27;99497.41;;;18.37;84.59
31239;BME280;17871;31.584;74.450;2023-01-31T06:34:57;99496.47;;;18.50;84.40
31239;BME280;17871;31.584;74.450;2023-01-31T06:37:27;99501.66;;;18.43;82.36
31239;BME280;17871;31.584;74.450;2023-01-31T06:39:58;99492.09;;;18.58;82.89
31239;BME280;17871;31.584;74.450;2023-01-31T06:42:29;99489.59;;;18.43;80.62
31239;BME280;17871;31.584;74.450;2023-01-31T06:44:59;99489.53;;;18.55;80.83
31239;BME280;17871;31.584;74.450;2023-01-31T06:47:29;99487.84;;;18.42;81.62
31239;BME280;17871;31.584;74.450;2023-01-31T06:50:00;99482.50;;;18.73;81.76
31239;BME280;17871;31.584;74.450;2023-01-31T06:52:30;99487.63;;;18.79;80.55
31239;BME280;17871;31.584;74.450;2023-01-31T06:55:00;99478.19;;;18.73;79.94
31239;BME280;17871;31.584;74.450;2023-01-31T06:57:31;99472.84;;;18.88;80.94
31239;BME280;17871;31.584;74.450;2023-01-31T07:00:01;99472.69;;;19.03;80.85
31239;BME280;17871;31.584;74.450;2023-01-31T07:02:30;99471.00;;;19.02;79.89
31239;BME280;17871;31.584;74.450;2023-01-31T07:04:59;99477.00;;;19.06;80.40
31239;BME280;17871;31.584;74.450;2023-01-31T07:07:28;99466.56;;;19.15;80.19
31239;BME280;17871;31.584;74.450;2023-01-31T07:09:58;99452.47;;;19.37;79.43
31239;BME280;17871;31.584;74.450;2023-01-31T07:12:27;99445.72;;;19.26;80.26
31239;BME280;17871;31.584;74.450;2023-01-31T07:14:57;99439.66;;;19.25;79.44
31239;BME280;17871;31.584;74.450;2023-01-31T07:17:26;99440.59;;;19.18;78.62
31239;BME280;17871;31.584;74.450;2023-01-31T07:19:55;99435.34;;;19.24;78.50
31239;BME280;17871;31.584;74.450;2023-01-31T07:22:24;99425.03;;;19.21;78.06
31239;BME280;17871;31.584;74.450;2023-01-31T07:24:54;99422.28;;;19.36;77.08
31239;BME280;17871;31.584;74.450;2023-01-31T07:27:23;99407.75;;;19.20;77.74
31239;BME280;17871;31.584;74.450;2023-01-31T07:29:52;99413.56;;;19.43;78.39
31239;BME280;17871;31.584;74.450;2023-01-31T07:32:21;99396.19;;;19.50;77.83
31239;BME280;17871;31.584;74.450;2023-01-31T07:34:50;99398.78;;;19.50;76.67
31239;BME280;17871;31.584;74.450;2023-01-31T07:37:20;99390.28;;;19.40;76.57
31239;BME280;17871;31.584;74.450;2023-01-31T07:39:49;99390.88;;;19.60;77.04
31239;BME280;17871;31.584;74.450;2023-01-31T07:42:21;99369.09;;;19.74;77.44
31239;BME280;17871;31.584;74.450;2023-01-31T07:44:51;99371.00;;;19.61;77.66
31239;BME280;17871;31.584;74.450;2023-01-31T07:47:24;99361.63;;;19.52;75.89
31239;BME280;17871;31.584;74.450;2023-01-31T07:49:54;99361.50;;;19.61;74.84
31239;BME280;17871;31.584;74.450;2023-01-31T07:52:24;99360.47;;;19.72;74.35
31239;BME280;17871;31.584;74.450;2023-01-31T07:54:54;99354.47;;;19.68;74.67
31239;BME280;17871;31.584;74.450;2023-01-31T08:00:43;99351.66;;;19.85;74.43
31239;BME280;17871;31.584;74.450;2023-01-31T08:07:38;99342.09;;;19.87;72.62
31239;BME280;17871;31.584;74.450;2023-01-31T08:10:14;99342.53;;;20.13;74.51
31239;BME280;17871;31.584;74.450;2023-01-31T08:12:55;99340.22;;;19.96;73.83
31239;BME280;17871;31.584;74.450;2023-01-31T08:15:27;99346.06;;;20.09;73.49
31239;BME280;17871;31.584;74.450;2023-01-31T08:17:57;99333.53;;;19.82;73.27
31239;BME280;17871;31.584;74.450;2023-01-31T08:21:04;99326.09;;;20.14;73.40
31239;BME280;17871;31.584;74.450;2023-01-31T08:24:10;99333.13;;;20.06;73.83
31239;BME280;17871;31.584;74.450;2023-01-31T08:26:41;99333.13;;;20.06;73.51
31239;BME280;17871;31.584;74.450;2023-01-31T08:29:12;99320.16;;;20.06;72.68
31239;BME280;17871;31.584;74.450;2023-01-31T08:31:41;99319.44;;;19.98;72.80
31239;BME280;17871;31.584;74.450;2023-01-31T08:34:11;99320.03;;;20.15;73.48
31239;BME280;17871;31.584;74.450;2023-01-31T08:36:42;99325.31;;;20.09;73.86
31239;BME280;17871;31.584;74.450;2023-01-31T08:39:13;99318.22;;;20.20;72.47
31239;BME280;17871;31.584;74.450;2023-01-31T08:41:43;99312.00;;;20.32;74.00
31239;BME280;17871;31.584;74.450;2023-01-31T08:44:13;99312.75;;;20.38;72.98
31239;BME280;17871;31.584;74.450;2023-01-31T08:46:43;99311.03;;;20.37;72.50
31239;BME280;17871;31.584;74.450;2023-01-31T08:49:14;99307.44;;;20.44;71.95
31239;BME280;17871;31.584;74.450;2023-01-31T08:51:43;99314.78;;;20.18;72.48
31239;BME280;17871;31.584;74.450;2023-01-31T08:54:13;99309.63;;;20.16;71.06
31239;BME280;17871;31.584;74.450;2023-01-31T08:56:44;99306.75;;;20.35;71.25
31239;BME280;17871;31.584;74.450;2023-01-31T08:59:14;99299.03;;;20.30;71.17
31239;BME280;17871;31.584;74.450;2023-01-31T09:01:44;99291.00;;;20.42;70.98
31239;BME280;17871;31.584;74.450;2023-01-31T09:04:14;99298.63;;;20.53;70.29
31239;BME280;17871;31.584;74.450;2023-01-31T09:06:44;99296.16;;;20.45;69.13
31239;BME280;17871;31.584;74.450;2023-01-31T09:09:14;99292.78;;;20.40;70.11
31239;BME280;17871;31.584;74.450;2023-01-31T09:11:44;99291.97;;;20.38;69.00
31239;BME280;17871;31.584;74.450;2023-01-31T09:14:14;99285.13;;;20.34;68.73
31239;BME280;17871;31.584;74.450;2023-01-31T09:16:44;99291.91;;;20.41;68.74
31239;BME280;17871;31.584;74.450;2023-01-31T09:19:18;99274.38;;;20.52;68.57
31239;BME280;17871;31.584;74.450;2023-01-31T09:21:48;99281.25;;;20.55;68.35
31239;BME280;17871;31.584;74.450;2023-01-31T09:24:18;99272.03;;;20.39;69.32
31239;BME280;17871;31.584;74.450;2023-01-31T09:26:48;99273.50;;;20.53;68.55
31239;BME280;17871;31.584;74.450;2023-01-31T09:29:18;99277.72;;;20.60;68.20
31239;BME280;17871;31.584;74.450;2023-01-31T09:31:52;99276.00;;;20.59;69.15
31239;BME280;17871;31.584;74.450;2023-01-31T09:34:25;99269.53;;;20.34;69.08
31239;BME280;17871;31.584;74.450;2023-01-31T09:36:55;99267.44;;;20.05;67.98
31239;BME280;17871;31.584;74.450;2023-01-31T09:39:26;99271.53;;;20.17;68.68
31239;BME280;17871;31.584;74.450;2023-01-31T09:42:07;99265.16;;;20.36;68.37
31239;BME280;17871;31.584;74.450;2023-01-31T09:44:43;99263.50;;;20.34;66.84
31239;BME280;17871;31.584;74.450;2023-01-31T09:47:33;99256.13;;;20.57;66.62
31239;BME280;17871;31.584;74.450;2023-01-31T09:51:08;99247.59;;;20.50;66.33
31239;BME280;17871;31.584;74.450;2023-01-31T09:53:18;99250.13;;;20.53;66.95
31239;BME280;17871;31.584;74.450;2023-01-31T10:11:00;99234.25;;;20.68;66.53
31239;BME280;17871;31.584;74.450;2023-01-31T10:13:38;99231.09;;;20.54;66.13
31239;BME280;17871;31.584;74.450;2023-01-31T10:19:04;99228.44;;;20.57;66.13
31239;BME280;17871;31.584;74.450;2023-01-31T10:21:41;99226.00;;;20.48;65.30
31239;BME280;17871;31.584;74.450;2023-01-31T10:26:43;99234.38;;;20.62;65.73
31239;BME280;17871;31.584;74.450;2023-01-31T10:29:27;99233.19;;;20.34;66.95
31239;BME280;17871;31.584;74.450;2023-01-31T10:32:09;99228.75;;;20.39;65.31
31239;BME280;17871;31.584;74.450;2023-01-31T10:34:46;99229.69;;;20.38;64.17
31239;BME280;17871;31.584;74.450;2023-01-31T10:37:56;99223.75;;;20.32;65.03
31239;BME280;17871;31.584;74.450;2023-01-31T10:40:22;99226.03;;;20.45;64.72
31239;BME280;17871;31.584;74.450;2023-01-31T10:43:02;99225.28;;;20.40;65.16
31239;BME280;17871;31.584;74.450;2023-01-31T10:45:33;99231.81;;;20.15;64.73
31239;BME280;17871;31.584;74.450;2023-01-31T10:58:18;99221.22;;;20.27;66.03
31239;BME280;17871;31.584;74.450;2023-01-31T11:00:50;99219.75;;;20.11;66.33
31239;BME280;17871;31.584;74.450;2023-01-31T11:03:20;99217.09;;;20.14;66.63
31239;BME280;17871;31.584;74.450;2023-01-31T11:05:52;99219.63;;;20.17;66.08
31239;BME280;17871;31.584;74.450;2023-01-31T11:08:47;99221.25;;;20.24;65.03
31239;BME280;17871;31.584;74.450;2023-01-31T11:11:19;99220.50;;;20.16;66.04
31239;BME280;17871;31.584;74.450;2023-01-31T11:14:03;99209.91;;;20.30;66.02
31239;BME280;17871;31.584;74.450;2023-01-31T11:16:36;99221.56;;;20.06;65.25
31239;BME280;17871;31.584;74.450;2023-01-31T11:19:17;99218.09;;;20.07;64.60
31239;BME280;17871;31.584;74.450;2023-01-31T11:25:31;99204.44;;;19.97;65.58
31239;BME280;17871;31.584;74.450;2023-01-31T11:31:37;99190.59;;;19.97;63.25
31239;BME280;17871;31.584;74.450;2023-01-31T11:34:29;99202.69;;;19.98;64.25
31239;BME280;17871;31.584;74.450;2023-01-31T11:37:14;99187.31;;;19.87;64.84
31239;BME280;17871;31.584;74.450;2023-01-31T11:41:00;99189.22;;;19.78;64.63
31239;BME280;17871;31.584;74.450;2023-01-31T11:47:52;99176.13;;;19.85;65.47
31239;BME280;17871;31.584;74.450;2023-01-31T11:52:57;99177.34;;;19.64;65.41
31239;BME280;17871;31.584;74.450;2023-01-31T11:55:37;99179.00;;;19.68;64.88
31239;BME280;17871;31.584;74.450;2023-01-31T12:02:24;99167.84;;;19.63;64.86
31239;BME280;17871;31.584;74.450;2023-01-31T12:04:59;99169.06;;;19.41;64.78
31239;BME280;17871;31.584;74.450;2023-01-31T12:07:42;99168.81;;;19.58;64.27
31239;BME280;17871;31.584;74.450;2023-01-31T12:10:50;99171.47;;;19.53;64.77
31239;BME280;17871;31.584;74.450;2023-01-31T12:13:21;99178.66;;;19.35;66.44
31239;BME280;17871;31.584;74.450;2023-01-31T12:16:00;99171.69;;;19.37;66.55
31239;BME280;17871;31.584;74.450;2023-01-31T12:21:40;99170.09;;;19.30;68.03
31239;BME280;17871;31.584;74.450;2023-01-31T12:24:30;99168.38;;;19.29;68.69
31239;BME280;17871;31.584;74.450;2023-01-31T12:33:13;99160.00;;;19.11;70.68
31239;BME280;17871;31.584;74.450;2023-01-31T12:42:44;99148.06;;;19.03;71.06
31239;BME280;17871;31.584;74.450;2023-01-31T12:56:46;99158.97;;;18.62;73.43
31239;BME280;17871;31.584;74.450;2023-01-31T12:59:42;99160.56;;;18.74;74.11
31239;BME280;17871;31.584;74.450;2023-01-31T13:03:02;99159.75;;;18.70;74.07
31239;BME280;17871;31.584;74.450;2023-01-31T13:05:55;99161.59;;;18.60;73.42
31239;BME280;17871;31.584;74.450;2023-01-31T13:08:29;99160.88;;;18.46;73.91
31239;BME280;17871;31.584;74.450;2023-01-31T13:11:08;99168.59;;;18.51;74.58
31239;BME280;17871;31.584;74.450;2023-01-31T13:13:54;99171.19;;;18.48;75.09
31239;BME280;17871;31.584;74.450;2023-01-31T13:16:30;99175.53;;;18.47;74.28
31239;BME280;17871;31.584;74.450;2023-01-31T13:19:09;99178.25;;;18.35;74.75
31239;BME280;17871;31.584;74.450;2023-01-31T13:21:45;99170.44;;;18.38;75.01
31239;BME280;17871;31.584;74.450;2023-01-31T13:24:27;99179.94;;;18.38;75.19
31239;BME280;17871;31.584;74.450;2023-01-31T13:29:55;99177.34;;;18.39;75.35
31239;BME280;17871;31.584;74.450;2023-01-31T13:32:28;99182.72;;;18.20;75.10
31239;BME280;17871;31.584;74.450;2023-01-31T13:35:08;99189.56;;;18.25;75.95
31239;BME280;17871;31.584;74.450;2023-01-31T13:37:48;99190.53;;;18.17;75.50
31239;BME280;17871;31.584;74.450;2023-01-31T13:40:24;99186.19;;;18.20;75.98
31239;BME280;17871;31.584;74.450;2023-01-31T13:42:59;99195.75;;;18.13;76.74
31239;BME280;17871;31.584;74.450;2023-01-31T13:45:37;99206.13;;;18.09;76.86
31239;BME280;17871;31.584;74.450;2023-01-31T13:53:46;99205.38;;;17.98;77.18
31239;BME280;17871;31.584;74.450;2023-01-31T13:56:28;99210.56;;;17.95;77.10
31239;BME280;17871;31.584;74.450;2023-01-31T13:58:59;99209.75;;;17.88;77.38
31239;BME280;17871;31.584;74.450;2023-01-31T14:01:35;99214.09;;;17.88;77.55
31239;BME280;17871;31.584;74.450;2023-01-31T14:09:25;99215.88;;;17.80;76.72
31239;BME280;17871;31.584;74.450;2023-01-31T14:11:57;99209.81;;;17.82;77.30
31239;BME280;17871;31.584;74.450;2023-01-31T14:17:13;99226.19;;;17.83;77.21
31239;BME280;17871;31.584;74.450;2023-01-31T14:20:05;99228.84;;;17.78;77.08
31239;BME280;17871;31.584;74.450;2023-01-31T14:22:37;99222.81;;;17.78;77.16
31239;BME280;17871;31.584;74.450;2023-01-31T14:27:42;99232.41;;;17.60;77.38
31239;BME280;17871;31.584;74.450;2023-01-31T14:41:20;99225.53;;;17.55;78.38
31239;BME280;17871;31.584;74.450;2023-01-31T14:52:54;99241.00;;;17.64;78.56
31239;BME280;17871;31.584;74.450;2023-01-31T14:58:30;99237.69;;;17.41;78.65
31239;BME280;17871;31.584;74.450;2023-01-31T15:01:05;99237.63;;;17.50;78.41
31239;BME280;17871;31.584;74.450;2023-01-31T15:03:55;99248.78;;;17.53;78.34
31239;BME280;17871;31.584;74.450;2023-01-31T15:06:34;99247.97;;;17.51;78.78
31239;BME280;17871;31.584;74.450;2023-01-31T15:11:49;99264.38;;;17.41;78.49
31239;BME280;17871;31.584;74.450;2023-01-31T15:17:28;99264.34;;;17.47;79.23
31239;BME280;17871;31.584;74.450;2023-01-31T15:20:23;99265.22;;;17.48;78.76
31239;BME280;17871;31.584;74.450;2023-01-31T15:23:02;99271.25;;;17.42;79.06
31239;BME280;17871;31.584;74.450;2023-01-31T15:25:38;99272.13;;;17.40;78.93
31239;BME280;17871;31.584;74.450;2023-01-31T15:28:15;99266.19;;;17.29;79.57
31239;BME280;17871;31.584;74.450;2023-01-31T15:30:48;99269.59;;;17.32;79.31
31239;BME280;17871;31.584;74.450;2023-01-31T15:33:31;99261.84;;;17.35;78.81
31239;BME280;17871;31.584;74.450;2023-01-31T15:38:55;99260.91;;;17.42;77.94
31239;BME280;17871;31.584;74.450;2023-01-31T15:41:54;99260.91;;;17.42;78.87
31239;BME280;17871;31.584;74.450;2023-01-31T15:44:26;99264.50;;;17.25;78.81
31239;BME280;17871;31.584;74.450;2023-01-31T15:46:57;99268.88;;;17.06;79.39
31239;BME280;17871;31.584;74.450;2023-01-31T15:49:32;99270.56;;;17.15;79.85
31239;BME280;17871;31.584;74.450;2023-01-31T15:54:36;99269.78;;;16.99;80.01
31239;BME280;17871;31.584;74.450;2023-01-31T15:57:13;99280.09;;;17.05;80.26
31239;BME280;17871;31.584;74.450;2023-01-31T15:59:45;99274.94;;;17.00;80.13
31239;BME280;17871;31.584;74.450;2023-01-31T16:02:26;99279.22;;;17.07;80.36
31239;BME280;17871;31.584;74.450;2023-01-31T16:04:56;99284.41;;;16.98;80.00
31239;BME280;17871;31.584;74.450;2023-01-31T16:07:27;99287.00;;;16.97;80.21
31239;BME280;17871;31.584;74.450;2023-01-31T16:10:00;99283.56;;;16.93;80.31
31239;BME280;17871;31.584;74.450;2023-01-31T16:12:35;99284.41;;;16.98;80.46
31239;BME280;17871;31.584;74.450;2023-01-31T16:15:26;99280.09;;;16.96;80.46
31239;BME280;17871;31.584;74.450;2023-01-31T16:18:01;99274.13;;;16.83;81.13
31239;BME280;17871;31.584;74.450;2023-01-31T16:23:33;99266.34;;;16.97;80.93
31239;BME280;17871;31.584;74.450;2023-01-31T16:26:29;99263.81;;;16.85;81.58
31239;BME280;17871;31.584;74.450;2023-01-31T16:29:29;99250.06;;;16.86;81.37